createdAt,value
2022-10-16T00:01:46.997Z,19.58
2022-10-16T00:04:15.451Z,17.55
2022-10-16T00:06:43.915Z,19.10
2022-10-16T00:09:12.292Z,22.02
2022-10-16T00:11:45.701Z,19.67
2022-10-16T00:14:15.507Z,22.43
2022-10-16T00:16:44.173Z,16.75
2022-10-16T00:19:18.222Z,17.83
2022-10-16T00:21:46.600Z,19.73
2022-10-16T00:24:33.047Z,19.00
2022-10-16T00:27:01.311Z,17.27
2022-10-16T00:29:40.295Z,21.55
2022-10-16T00:32:20.260Z,22.88
2022-10-16T00:34:49.109Z,30.40
2022-10-16T00:37:22.073Z,20.73
2022-10-16T00:39:52.448Z,19.52
2022-10-16T00:42:20.749Z,22.48
2022-10-16T00:45:00.025Z,20.30
2022-10-16T00:47:38.290Z,25.40
2022-10-16T00:50:12.788Z,17.38
2022-10-16T00:52:51.603Z,20.48
2022-10-16T00:55:20.249Z,19.65
2022-10-16T00:57:49.823Z,19.67
2022-10-16T01:00:25.309Z,17.98
2022-10-16T01:02:58.291Z,20.33
2022-10-16T01:05:39.316Z,21.85
2022-10-16T01:08:15.577Z,23.02
2022-10-16T01:10:58.675Z,21.98
2022-10-16T01:13:30.043Z,24.95
2022-10-16T01:16:08.368Z,21.00
2022-10-16T01:18:42.517Z,21.70
2022-10-16T01:21:32.031Z,25.55
2022-10-16T01:24:00.479Z,22.30
2022-10-16T01:26:31.465Z,22.63
2022-10-16T01:29:19.238Z,20.08
2022-10-16T01:31:50.968Z,21.40
2022-10-16T01:34:23.013Z,19.45
2022-10-16T01:36:58.077Z,22.98
2022-10-16T01:39:30.358Z,16.80
2022-10-16T01:42:20.152Z,20.95
2022-10-16T01:44:49.273Z,21.42
2022-10-16T01:47:19.029Z,17.17
2022-10-16T01:49:47.563Z,15.65
2022-10-16T01:52:19.100Z,16.40
2022-10-16T01:54:49.007Z,17.30
2022-10-16T01:57:17.911Z,15.80
2022-10-16T01:59:53.209Z,17.75
2022-10-16T02:02:22.018Z,14.82
2022-10-16T02:04:56.420Z,20.17
2022-10-16T02:07:25.224Z,18.92
2022-10-16T02:09:53.660Z,17.67
2022-10-16T02:12:37.859Z,16.58
2022-10-16T02:15:06.568Z,17.50
2022-10-16T02:17:34.883Z,16.75
2022-10-16T02:20:03.507Z,18.30
2022-10-16T02:22:35.201Z,21.42
2022-10-16T02:25:06.367Z,18.33
2022-10-16T02:27:53.056Z,16.80
2022-10-16T02:30:42.699Z,18.02
2022-10-16T02:33:12.143Z,23.33
2022-10-16T02:35:41.595Z,30.80
2022-10-16T02:40:44.158Z,30.55
2022-10-16T02:43:13.049Z,28.95
2022-10-16T02:45:41.406Z,29.53
2022-10-16T02:48:10.144Z,27.52
2022-10-16T02:50:38.520Z,26.10
2022-10-16T02:53:06.838Z,26.20
2022-10-16T02:55:36.699Z,23.06
2022-10-16T02:58:05.021Z,23.20
2022-10-16T03:00:33.296Z,25.15
2022-10-16T03:03:01.727Z,23.20
2022-10-16T03:05:30.724Z,26.40
2022-10-16T03:08:01.415Z,28.55
2022-10-16T03:10:29.822Z,26.60
2022-10-16T03:13:08.347Z,34.50
2022-10-16T03:15:36.747Z,29.70
2022-10-16T03:18:05.148Z,34.28
2022-10-16T03:20:46.491Z,31.70
2022-10-16T03:23:14.911Z,37.80
2022-10-16T03:25:43.284Z,37.00
2022-10-16T03:28:19.327Z,35.73
2022-10-16T03:30:49.187Z,35.60
2022-10-16T03:33:17.791Z,39.17
2022-10-16T03:35:56.460Z,40.00
2022-10-16T03:38:25.349Z,37.65
2022-10-16T03:41:05.297Z,37.08
2022-10-16T03:43:33.958Z,34.05
2022-10-16T03:46:03.083Z,30.52
2022-10-16T03:48:33.524Z,34.17
2022-10-16T03:51:02.114Z,32.25
2022-10-16T03:53:30.737Z,35.45
2022-10-16T03:55:59.909Z,31.08
2022-10-16T03:58:28.263Z,31.25
2022-10-16T04:00:56.615Z,32.88
2022-10-16T04:03:25.049Z,31.27
2022-10-16T04:05:53.422Z,35.35
2022-10-16T04:08:22.374Z,31.80
2022-10-16T04:10:51.206Z,32.92
2022-10-16T04:15:53.025Z,30.80
2022-10-16T04:18:21.460Z,30.17
2022-10-16T04:20:49.930Z,35.47
2022-10-16T04:23:18.262Z,33.28
2022-10-16T04:25:47.886Z,36.80
2022-10-16T04:28:16.275Z,38.00
2022-10-16T04:30:44.739Z,30.45
2022-10-16T04:33:15.421Z,41.75
2022-10-16T04:35:43.796Z,29.42
2022-10-16T04:38:12.249Z,34.00
2022-10-16T04:40:40.606Z,29.13
2022-10-16T04:43:21.050Z,37.83
2022-10-16T04:45:50.008Z,42.60
2022-10-16T04:48:20.113Z,41.20
2022-10-16T04:50:52.981Z,39.15
2022-10-16T04:53:23.684Z,38.00
2022-10-16T04:56:01.997Z,37.17
2022-10-16T04:58:40.426Z,43.72
2022-10-16T05:01:08.819Z,38.80
2022-10-16T05:03:37.129Z,38.30
2022-10-16T05:06:07.241Z,38.72
2022-10-16T05:08:35.696Z,37.70
2022-10-16T05:11:04.199Z,39.42
2022-10-16T05:13:32.780Z,37.00
2022-10-16T05:16:01.156Z,45.30
2022-10-16T05:18:29.526Z,42.20
2022-10-16T05:20:58.423Z,34.03
2022-10-16T05:23:26.766Z,38.70
2022-10-16T05:25:59.536Z,31.52
2022-10-16T05:28:28.754Z,28.77
2022-10-16T05:30:57.485Z,25.63
2022-10-16T05:33:36.445Z,31.23
2022-10-16T05:36:10.874Z,22.92
2022-10-16T05:38:52.201Z,22.45
2022-10-16T05:41:23.259Z,22.58
2022-10-16T05:43:51.880Z,30.73
2022-10-16T05:46:20.191Z,21.98
2022-10-16T05:48:48.551Z,24.35
2022-10-16T05:51:16.834Z,23.65
2022-10-16T05:53:45.277Z,25.15
2022-10-16T05:56:14.214Z,23.30
2022-10-16T05:58:43.282Z,26.20
2022-10-16T06:01:15.925Z,27.08
2022-10-16T06:03:44.622Z,22.95
2022-10-16T06:06:14.649Z,25.08
2022-10-16T06:08:48.633Z,24.77
2022-10-16T06:11:27.419Z,25.70
2022-10-16T06:13:58.190Z,28.80
2022-10-16T06:16:28.474Z,29.27
2022-10-16T06:18:57.360Z,28.00
2022-10-16T06:21:26.367Z,21.45
2022-10-16T06:23:56.170Z,20.13
2022-10-16T06:26:26.662Z,23.23
2022-10-16T06:28:58.910Z,18.52
2022-10-16T06:31:30.446Z,15.57
2022-10-16T06:33:59.412Z,16.95
2022-10-16T06:36:28.084Z,11.20
2022-10-16T06:38:56.574Z,12.82
2022-10-16T06:41:25.095Z,9.48
2022-10-16T06:43:53.708Z,10.98
2022-10-16T06:46:24.912Z,11.07
2022-10-16T06:48:54.174Z,12.45
2022-10-16T06:51:23.269Z,9.52
2022-10-16T06:54:08.205Z,9.57
2022-10-16T06:56:37.036Z,11.05
2022-10-16T06:59:05.523Z,9.85
2022-10-16T07:01:34.018Z,12.13
2022-10-16T07:04:03.419Z,8.75
2022-10-16T07:06:32.965Z,9.60
2022-10-16T07:09:02.859Z,9.00
2022-10-16T07:11:31.192Z,11.95
2022-10-16T07:14:00.020Z,11.90
2022-10-16T07:16:29.450Z,7.43
2022-10-16T07:19:01.653Z,10.13
2022-10-16T07:21:31.426Z,9.00
2022-10-16T07:24:02.575Z,13.73
2022-10-16T07:26:32.451Z,12.50
2022-10-16T07:29:00.969Z,8.57
2022-10-16T07:31:29.452Z,8.23
2022-10-16T07:34:02.685Z,8.70
2022-10-16T07:36:31.146Z,10.75
2022-10-16T07:39:00.238Z,9.25
2022-10-16T07:41:29.437Z,7.80
2022-10-16T07:44:07.970Z,7.90
2022-10-16T07:46:37.311Z,13.13
2022-10-16T07:49:05.930Z,10.63
2022-10-16T07:51:34.519Z,15.48
2022-10-16T07:54:03.293Z,16.52
2022-10-16T07:56:32.956Z,24.75
2022-10-16T07:59:01.299Z,24.83
2022-10-16T08:01:39.639Z,31.63
2022-10-16T08:04:09.765Z,13.10
2022-10-16T08:06:39.093Z,9.63
2022-10-16T08:09:09.496Z,11.88
2022-10-16T08:11:38.058Z,16.83
2022-10-16T08:14:16.192Z,16.50
2022-10-16T08:16:44.545Z,14.65
2022-10-16T08:19:12.877Z,12.88
2022-10-16T08:21:41.817Z,15.70
2022-10-16T08:24:10.285Z,14.73
2022-10-16T08:26:38.708Z,14.30
2022-10-16T08:29:07.117Z,12.73
2022-10-16T08:31:45.060Z,12.27
2022-10-16T08:34:18.376Z,11.60
2022-10-16T08:36:46.709Z,11.30
2022-10-16T08:39:15.224Z,13.67
2022-10-16T08:42:02.358Z,14.57
2022-10-16T08:44:38.018Z,11.80
2022-10-16T08:47:26.757Z,14.60
2022-10-16T08:50:03.542Z,10.68
2022-10-16T08:52:34.253Z,13.88
2022-10-16T08:55:03.317Z,11.15
2022-10-16T08:57:34.005Z,11.68
2022-10-16T09:00:10.624Z,13.73
2022-10-16T09:02:40.354Z,13.45
2022-10-16T09:05:11.598Z,13.90
2022-10-16T09:07:40.413Z,13.23
2022-10-16T09:10:31.149Z,13.05
2022-10-16T09:13:19.042Z,15.50
2022-10-16T09:16:00.400Z,13.65
2022-10-16T09:18:34.649Z,15.63
2022-10-16T09:21:02.990Z,14.20
2022-10-16T09:23:32.246Z,14.82
2022-10-16T09:26:00.886Z,14.13
2022-10-16T09:28:29.305Z,14.50
2022-10-16T09:30:58.051Z,15.27
2022-10-16T09:33:32.093Z,12.23
2022-10-16T09:36:00.739Z,13.75
2022-10-16T09:38:33.984Z,10.55
2022-10-16T09:41:12.596Z,9.93
2022-10-16T09:43:49.564Z,164.60
2022-10-16T09:46:27.445Z,22.67
2022-10-16T09:49:00.069Z,10.20
2022-10-16T09:51:32.600Z,8.57
2022-10-16T09:54:12.349Z,11.07
2022-10-16T09:56:40.891Z,9.60
2022-10-16T09:59:14.335Z,9.65
2022-10-16T10:01:54.377Z,9.80
2022-10-16T10:04:24.593Z,12.43
2022-10-16T10:06:55.796Z,9.73
2022-10-16T10:09:28.526Z,59.65
2022-10-16T10:17:53.737Z,45.17
2022-10-16T10:20:24.798Z,13.63
2022-10-16T10:22:53.348Z,9.82
2022-10-16T10:25:24.769Z,17.38
2022-10-16T10:28:11.941Z,15.68
2022-10-16T10:33:27.017Z,17.45
2022-10-16T10:36:16.360Z,13.18
2022-10-16T10:38:47.670Z,14.18
2022-10-16T10:41:26.638Z,30.25
2022-10-16T10:43:57.573Z,13.93
2022-10-16T10:46:25.925Z,16.70
2022-10-16T10:52:08.496Z,117.60
2022-10-16T10:55:03.608Z,65.25
2022-10-16T10:57:53.525Z,13.50
2022-10-16T11:00:28.912Z,12.47
2022-10-16T11:03:09.233Z,14.90
2022-10-16T11:05:44.292Z,25.92
2022-10-16T11:08:16.884Z,13.25
2022-10-16T11:10:51.266Z,9.88
2022-10-16T11:13:34.061Z,14.10
2022-10-16T11:16:20.460Z,23.25
2022-10-16T11:18:53.544Z,26.38
2022-10-16T11:21:30.318Z,40.17
2022-10-16T11:24:06.390Z,26.88
2022-10-16T11:26:37.259Z,19.88
2022-10-16T11:29:13.664Z,37.22
2022-10-16T11:31:44.731Z,17.00
2022-10-16T11:34:19.454Z,27.20
2022-10-16T11:36:52.959Z,24.45
2022-10-16T11:39:30.519Z,34.60
2022-10-16T11:42:06.197Z,21.63
2022-10-16T11:44:43.699Z,145.15
2022-10-16T11:47:46.844Z,73.13
2022-10-16T11:50:18.648Z,174.13
2022-10-16T11:53:06.681Z,140.57
2022-10-16T11:55:40.431Z,84.93
2022-10-16T11:58:24.266Z,185.75
2022-10-16T12:01:01.679Z,127.00
2022-10-16T12:03:41.971Z,293.10
2022-10-16T12:06:24.773Z,81.80
2022-10-16T12:08:54.163Z,69.18
2022-10-16T12:11:33.335Z,61.20
2022-10-16T12:14:28.297Z,32.30
2022-10-16T12:16:58.101Z,32.95
2022-10-16T12:19:27.966Z,50.63
2022-10-16T12:22:06.179Z,58.58
2022-10-16T12:24:35.991Z,56.95
2022-10-16T12:27:05.438Z,43.97
2022-10-16T12:29:35.656Z,41.80
2022-10-16T12:32:05.487Z,33.72
2022-10-16T12:35:07.119Z,41.67
2022-10-16T12:37:37.238Z,33.63
2022-10-16T12:40:16.619Z,51.55
2022-10-16T12:42:44.910Z,36.15
2022-10-16T12:45:28.728Z,49.95
2022-10-16T12:47:57.549Z,59.22
2022-10-16T12:50:25.806Z,92.60
2022-10-16T12:52:54.092Z,113.10
2022-10-16T12:55:23.739Z,237.68
2022-10-16T12:58:04.539Z,239.43
2022-10-16T13:00:35.821Z,293.52
2022-10-16T13:03:20.253Z,230.52
2022-10-16T13:05:54.861Z,235.90
2022-10-16T13:08:28.852Z,234.57
2022-10-16T13:11:03.738Z,217.02
2022-10-16T13:13:32.068Z,203.05
2022-10-16T13:16:04.106Z,163.63
2022-10-16T13:18:51.141Z,139.70
2022-10-16T13:21:28.382Z,119.90
2022-10-16T13:24:15.382Z,88.45
2022-10-16T13:26:51.170Z,75.45
2022-10-16T13:29:20.070Z,49.45
2022-10-16T13:31:59.237Z,34.60
2022-10-16T13:34:28.625Z,29.13
2022-10-16T13:36:56.988Z,27.88
2022-10-16T13:39:25.823Z,29.88
2022-10-16T13:42:06.257Z,27.60
2022-10-16T13:44:56.039Z,27.50
2022-10-16T13:47:26.168Z,28.50
2022-10-16T13:50:14.660Z,27.60
2022-10-16T13:52:46.162Z,31.23
2022-10-16T13:55:20.069Z,29.95
2022-10-16T13:57:49.397Z,28.15
2022-10-16T14:00:25.321Z,33.65
2022-10-16T14:02:57.537Z,32.47
2022-10-16T14:05:31.141Z,35.92
2022-10-16T14:08:12.683Z,31.95
2022-10-16T14:10:41.372Z,30.27
2022-10-16T14:13:31.913Z,26.95
2022-10-16T14:16:12.207Z,28.73
2022-10-16T14:18:57.956Z,28.50
2022-10-16T14:21:26.628Z,26.77
2022-10-16T14:24:15.498Z,28.65
2022-10-16T14:26:49.690Z,26.10
2022-10-16T14:29:30.131Z,29.10
2022-10-16T14:32:02.933Z,23.02
2022-10-16T14:34:34.230Z,25.08
2022-10-16T14:37:27.720Z,25.75
2022-10-16T14:39:57.440Z,26.80
2022-10-16T14:42:26.456Z,23.33
2022-10-16T14:44:56.152Z,23.08
2022-10-16T14:47:28.049Z,27.88
2022-10-16T14:49:58.961Z,25.13
2022-10-16T14:52:28.522Z,28.77
2022-10-16T14:54:57.797Z,23.45
2022-10-16T14:57:29.099Z,29.95
2022-10-16T14:59:59.213Z,32.53
2022-10-16T15:02:35.581Z,28.85
2022-10-16T15:05:12.071Z,25.88
2022-10-16T15:07:40.268Z,36.92
2022-10-16T15:10:08.711Z,34.42
2022-10-16T15:12:37.882Z,34.20
2022-10-16T15:15:39.788Z,45.65
2022-10-16T15:18:08.180Z,46.63
2022-10-16T15:20:37.996Z,53.72
2022-10-16T15:23:17.915Z,65.13
2022-10-16T15:25:56.867Z,68.38
2022-10-16T15:28:32.027Z,63.72
2022-10-16T15:31:00.381Z,65.60
2022-10-16T15:33:37.191Z,68.00
2022-10-16T15:36:08.235Z,67.68
2022-10-16T15:38:37.270Z,66.80
2022-10-16T15:41:07.610Z,66.15
2022-10-16T15:43:36.567Z,68.63
2022-10-16T15:46:18.432Z,63.92
2022-10-16T15:48:58.111Z,58.67
2022-10-16T15:51:30.812Z,61.45
2022-10-16T15:53:59.402Z,56.88
2022-10-16T15:56:27.789Z,47.38
2022-10-16T15:59:06.435Z,52.90
2022-10-16T16:01:37.012Z,46.70
2022-10-16T16:04:15.273Z,53.15
2022-10-16T16:06:48.547Z,56.05
2022-10-16T16:09:17.023Z,57.30
2022-10-16T16:11:45.393Z,44.47
2022-10-16T16:14:15.784Z,47.38
2022-10-16T16:16:44.321Z,39.97
2022-10-16T16:19:12.658Z,38.53
2022-10-16T16:21:41.075Z,38.35
2022-10-16T16:24:09.701Z,37.38
2022-10-16T16:26:45.893Z,39.90
2022-10-16T16:29:15.217Z,36.22
2022-10-16T16:31:44.244Z,37.65
2022-10-16T16:34:12.643Z,36.38
2022-10-16T16:36:41.407Z,38.80
2022-10-16T16:39:09.893Z,36.63
2022-10-16T16:41:38.507Z,36.90
2022-10-16T16:44:08.882Z,37.45
2022-10-16T16:46:37.327Z,32.03
2022-10-16T16:49:05.714Z,32.10
2022-10-16T16:51:37.020Z,29.20
2022-10-16T16:54:09.011Z,32.08
2022-10-16T16:56:37.484Z,34.70
2022-10-16T16:59:06.190Z,33.53
2022-10-16T17:01:34.545Z,34.88
2022-10-16T17:04:03.558Z,34.33
2022-10-16T17:06:32.831Z,35.78
2022-10-16T17:09:03.987Z,36.65
2022-10-16T17:11:32.311Z,37.33
2022-10-16T17:14:01.691Z,36.83
2022-10-16T17:16:34.002Z,36.67
2022-10-16T17:19:04.394Z,28.80
2022-10-16T17:21:33.350Z,30.20
2022-10-16T17:24:12.082Z,26.80
2022-10-16T17:26:44.029Z,27.10
2022-10-16T17:29:13.585Z,25.92
2022-10-16T17:31:42.070Z,22.20
2022-10-16T17:34:20.365Z,21.48
2022-10-16T17:36:48.741Z,20.83
2022-10-16T17:39:18.279Z,18.58
2022-10-16T17:41:47.354Z,11.40
2022-10-16T17:44:20.506Z,16.38
2022-10-16T17:46:53.175Z,14.57
2022-10-16T17:49:22.355Z,15.80
2022-10-16T17:51:52.757Z,14.68
2022-10-16T17:54:21.543Z,11.50
2022-10-16T17:56:49.972Z,11.88
2022-10-16T17:59:18.365Z,11.73
2022-10-16T18:01:46.775Z,10.75
2022-10-16T18:04:16.579Z,8.63
2022-10-16T18:06:46.082Z,11.48
2022-10-16T18:09:15.909Z,10.65
2022-10-16T18:11:44.699Z,10.15
2022-10-16T18:14:17.261Z,8.98
2022-10-16T18:16:45.779Z,8.65
2022-10-16T18:19:14.372Z,7.25
2022-10-16T18:21:43.304Z,6.32
2022-10-16T18:24:12.188Z,7.97
2022-10-16T18:26:40.457Z,7.07
2022-10-16T18:29:10.412Z,6.97
2022-10-16T18:31:42.723Z,8.68
2022-10-16T18:34:16.629Z,8.23
2022-10-16T18:36:45.296Z,9.93
2022-10-16T18:39:14.036Z,9.98
2022-10-16T18:41:45.099Z,11.52
2022-10-16T18:44:14.226Z,8.23
2022-10-16T18:46:42.912Z,6.65
2022-10-16T18:49:11.332Z,6.35
2022-10-16T18:51:41.117Z,6.20
2022-10-16T18:54:10.538Z,7.80
2022-10-16T18:56:39.558Z,7.68
2022-10-16T18:59:08.652Z,9.23
2022-10-16T19:01:39.073Z,5.97
2022-10-16T19:04:12.020Z,6.72
2022-10-16T19:06:45.064Z,7.80
2022-10-16T19:09:14.395Z,10.27
2022-10-16T19:11:42.834Z,9.40
2022-10-16T19:14:11.840Z,4.63
2022-10-16T19:16:40.803Z,8.93
2022-10-16T19:19:10.810Z,12.65
2022-10-16T19:21:42.505Z,12.95
2022-10-16T19:24:12.936Z,11.35
2022-10-16T19:26:45.530Z,13.00
2022-10-16T19:29:15.870Z,14.35
2022-10-16T19:31:44.150Z,27.80
2022-10-16T19:34:12.739Z,36.70
2022-10-16T19:36:41.677Z,32.85
2022-10-16T19:39:14.794Z,20.60
2022-10-16T19:41:43.501Z,20.58
2022-10-16T19:44:12.903Z,15.70
2022-10-16T19:46:41.242Z,14.90
2022-10-16T19:49:10.861Z,13.77
2022-10-16T19:51:39.695Z,12.98
2022-10-16T19:54:09.572Z,13.65
2022-10-16T19:56:38.298Z,14.90
2022-10-16T19:59:07.384Z,18.10
2022-10-16T20:01:35.833Z,21.95
2022-10-16T20:04:04.411Z,24.13
2022-10-16T20:06:32.707Z,23.98
2022-10-16T20:09:01.122Z,31.85
2022-10-16T20:11:30.880Z,28.45
2022-10-16T20:13:59.465Z,29.17
2022-10-16T20:16:28.579Z,31.48
2022-10-16T20:18:57.660Z,29.58
2022-10-16T20:21:27.119Z,30.08
2022-10-16T20:23:55.845Z,24.58
2022-10-16T20:26:26.282Z,25.55
2022-10-16T20:28:55.010Z,30.30
2022-10-16T20:31:25.240Z,26.02
2022-10-16T20:33:54.978Z,26.85
2022-10-16T20:36:24.977Z,22.48
2022-10-16T20:38:53.838Z,25.48
2022-10-16T20:41:22.472Z,24.70
2022-10-16T20:43:51.483Z,23.73
2022-10-16T20:46:22.210Z,23.40
2022-10-16T20:48:51.229Z,24.00
2022-10-16T20:51:19.522Z,17.95
2022-10-16T20:53:48.456Z,19.33
2022-10-16T20:56:17.782Z,21.67
2022-10-16T20:58:46.364Z,17.17
2022-10-16T21:01:15.930Z,18.80
2022-10-16T21:03:53.863Z,14.68
2022-10-16T21:06:22.721Z,15.98
2022-10-16T21:08:51.350Z,12.98
2022-10-16T21:11:24.700Z,13.50
2022-10-16T21:13:53.774Z,13.43
2022-10-16T21:16:22.417Z,11.27
2022-10-16T21:18:50.895Z,14.07
2022-10-16T21:21:21.979Z,12.80
2022-10-16T21:23:50.964Z,12.18
2022-10-16T21:26:23.580Z,10.93
2022-10-16T21:28:52.227Z,11.57
2022-10-16T21:31:21.707Z,11.75
2022-10-16T21:33:51.405Z,12.00
2022-10-16T21:36:21.298Z,12.06
2022-10-16T21:38:49.916Z,13.55
2022-10-16T21:41:22.740Z,14.32
2022-10-16T21:43:51.465Z,14.50
2022-10-16T21:46:26.793Z,12.68
2022-10-16T21:48:56.094Z,13.70
2022-10-16T21:51:28.589Z,12.70
2022-10-16T21:53:57.181Z,15.13
2022-10-16T21:56:29.492Z,13.93
2022-10-16T21:58:57.791Z,15.68
2022-10-16T22:01:27.502Z,15.95
2022-10-16T22:03:55.835Z,16.38
2022-10-16T22:06:27.565Z,15.88
2022-10-16T22:08:57.513Z,15.05
2022-10-16T22:11:28.407Z,17.48
2022-10-16T22:14:17.797Z,16.10
2022-10-16T22:16:46.502Z,16.51
2022-10-16T22:19:15.828Z,15.02
2022-10-16T22:21:46.462Z,15.70
2022-10-16T22:24:16.013Z,15.30
2022-10-16T22:26:47.147Z,15.00
2022-10-16T22:29:15.908Z,16.25
2022-10-16T22:31:44.833Z,15.95
2022-10-16T22:34:14.579Z,18.95
2022-10-16T22:36:42.955Z,14.73
2022-10-16T22:39:21.221Z,13.90
2022-10-16T22:41:49.532Z,14.93
2022-10-16T22:44:17.884Z,13.32
2022-10-16T22:46:46.112Z,13.23
2022-10-16T22:49:14.358Z,12.50
2022-10-16T22:51:53.486Z,12.90
2022-10-16T22:54:26.787Z,11.45
2022-10-16T22:56:55.101Z,9.85
2022-10-16T22:59:23.368Z,10.55
2022-10-16T23:01:51.652Z,11.32
2022-10-16T23:04:19.921Z,11.10
2022-10-16T23:06:48.185Z,9.73
2022-10-16T23:09:16.496Z,12.85
2022-10-16T23:11:44.797Z,27.23
2022-10-16T23:14:13.034Z,17.08
2022-10-16T23:16:41.294Z,34.33
2022-10-16T23:21:43.181Z,11.88
2022-10-16T23:24:11.398Z,13.13
2022-10-16T23:26:39.732Z,11.98
2022-10-16T23:29:08.097Z,13.52
2022-10-16T23:31:36.487Z,16.15
2022-10-16T23:34:09.756Z,14.73
2022-10-16T23:36:38.132Z,14.00
2022-10-16T23:39:06.505Z,15.48
2022-10-16T23:41:34.980Z,16.05
2022-10-16T23:44:03.621Z,16.33
2022-10-16T23:46:31.898Z,16.50
2022-10-16T23:49:10.245Z,15.43
2022-10-16T23:51:38.526Z,18.85
2022-10-16T23:54:06.881Z,17.73
2022-10-16T23:56:35.160Z,28.42
2022-10-16T23:59:03.487Z,20.00
